KAOO/AOO METAR and TAF weather

Enter ICAO airport designator
Station Type Date Time Source
KAOO METAR 2018/12/12 23:53 UTC NOAA

KAOO 122353Z AUTO 21004KT 10SM BKN100 01/M05 A3007 RMK AO2 SLP198 T00111050 10022 20006 55000


Station Type Date Time Source
KAOO Decoded METAR 2018/12/12 23:53 UTC NOAA

ALTOONA-BLAIR COUNTY AIRPORT, PA, United States (KAOO) 40-18N 78-19W 455M
Dec 12, 2018 - 06:53 PM EST / 2018.12.12 2353 UTC
Wind: from the SSW (210 degrees) at 5 MPH (4 KT):0
Visibility: 10 mile(s):0
Sky conditions: mostly cloudy
Temperature: 34.0 F (1.1 C)
Windchill: 30 F (-1 C):1
Dew Point: 23.0 F (-5.0 C)
Relative Humidity: 63%
Pressure (altimeter): 30.07 in. Hg (1018 hPa)
Pressure tendency: 0.00 inches (0.0 hPa) lower than three hours ago
ob: KAOO 122353Z AUTO 21004KT 10SM BKN100 01/M05 A3007 RMK AO2 SLP198 T00111050 10022 20006 55000
cycle: 0

Station Type Date Time Source
KAOO TAF 2018/12/12 22:42 UTC NOAA

TAF
AMD KAOO 122139Z 1222/1318 17006KT P6SM BKN120
FM130800 18004KT P6SM OVC025
FM131400 19002KT 4SM BR VCSH OVC007


Example: see airport list